Track Кондратьев Степан

Time Latitude Longitude Accuracy (66% radius in meters) Altitude (meters) Speed (km/hour) Bearing (degrees) Battery (%) GPS flag
10:00:33 55.737872 37.299137 4 171.85182069796 0.014767317101359 148.71455383301 76 1 delete
10:00:21 55.737887 37.299113 4 171.5469307558 0.28657844662666 144.20039367676 76 1 delete
10:00:09 55.737901 37.299124 4 171.87077823373 0.035459894686937 58.898155212402 76 1 delete
09:59:57 55.737879 37.299084 4 171.90118911847 0.010296056978405 58.898155212402 76 1 delete
09:59:48 55.737882 37.299087 4 171.95833915709 0.047135431319475 58.898155212402 76 1 delete
09:59:36 55.737895 37.299112 6 172.05438874701 0.0090228831395507 58.898155212402 76 1 delete
09:59:24 55.737896 37.299109 4 172.20272082316 0.0033219701144844 58.898155212402 76 1 delete
09:59:12 55.737875 37.299087 4 172.30362839191 0.030072810128331 58.898155212402 76 1 delete
09:59:00 55.737881 37.299096 4 172.34014430238 0.022977743297815 58.898155212402 76 1 delete
09:58:48 55.737884 37.299072 4 172.34339022063 0.062937952578068 58.898155212402 76 1 delete
09:58:36 55.737895 37.299083 4 172.37885259394 0.034100126475096 58.898155212402 76 1 delete
09:58:24 55.737908 37.299096 12 172.46208614812 0.02706802636385 58.898155212402 76 1 delete
09:58:12 55.737912 37.299110 4 172.53202636795 0.017296604812145 58.898155212402 76 1 delete
09:58:00 55.737917 37.299119 4 172.65082380145 0.016965029761195 58.898155212402 76 1 delete
09:57:48 55.737928 37.299161 6 172.78117073369 0.022520612925291 58.898155212402 76 1 delete
09:57:45 55.737921 37.299158 6 172.811668716 0.022264575585723 58.898155212402 76 1 delete
09:57:36 55.737885 37.299142 4 172.91024197484 0.062879994511604 58.898155212402 76 1 delete
09:57:24 55.737866 37.299088 4 173.01882404937 0.06634383648634 58.898155212402 76 1 delete
09:57:12 55.737865 37.299088 4 173.19266370758 0.024831656366587 58.898155212402 76 1 delete
09:57:03 55.737874 37.299093 4 173.24685690606 0.027346961200237 58.898155212402 76 1 delete
09:56:51 55.737882 37.299088 4 173.39764415059 0.019712794572115 58.898155212402 76 1 delete
09:56:39 55.737881 37.299088 4 173.46904766848 0.035640005022287 58.898155212402 76 1 delete
09:56:27 55.737885 37.299101 4 173.56559751865 0.022382659837604 58.898155212402 76 1 delete
09:56:18 55.737881 37.299098 4 174.15594377307 0.089197084307671 58.898155212402 76 1 delete
09:56:12 55.737878 37.299094 4 174.22561561384 0.011787256225944 58.898155212402 76 1 delete
09:56:06 55.737888 37.299089 4 174.28814224155 0.05431068316102 58.898155212402 76 1 delete
09:55:54 55.737915 37.299074 4 174.34197368204 0.036688406020403 58.898155212402 76 1 delete
09:55:42 55.737917 37.299078 6 174.25484116272 0.033288817852736 58.898155212402 76 1 delete
09:55:30 55.737927 37.299088 4 174.17504251015 0.044702995568514 58.898155212402 76 1 delete
09:55:21 55.737923 37.299101 4 174.12089483575 0.018744366243482 58.898155212402 76 1 delete
09:55:18 55.737928 37.299114 4 174.11098820774 0.027811685577035 58.898155212402 76 1 delete
09:55:06 55.737954 37.299167 4 174.05127324561 0.051613114774227 58.898155212402 76 1 delete
09:54:57 55.737953 37.299163 4 173.90538745334 0.035814188420773 58.898155212402 76 1 delete
09:54:54 55.737939 37.299154 4 173.84267527495 0.090197414159775 58.898155212402 76 1 delete
09:54:45 55.737908 37.299136 6 173.76793160526 0.042619712650776 58.898155212402 76 1 delete
09:54:32 55.737899 37.299087 4 173.78418777369 0.028210083022714 58.898155212402 76 1 delete
09:54:23 55.737918 37.299049 6 173.6735649138 0.0070099271833897 58.898155212402 76 1 delete
09:54:20 55.737915 37.299046 6 173.60210219578 0.028590342029929 58.898155212402 76 1 delete
09:54:08 55.737895 37.299081 4 173.34190248532 0.030525906011462 58.898155212402 76 1 delete
09:53:56 55.737892 37.299098 4 173.22723458218 0.023353571072221 58.898155212402 76 1 delete
09:53:44 55.737903 37.299113 4 173.17548893805 0.0058859223499894 58.898155212402 76 1 delete
09:53:32 55.737887 37.299123 4 173.17001851326 0.0029368547257036 58.898155212402 76 1 delete
09:53:20 55.737868 37.299102 6 173.2161633859 0.0094331409782171 58.898155212402 76 1 delete
09:53:11 55.737876 37.299083 4 173.27022880561 0.016099890694022 58.898155212402 76 1 delete
09:53:08 55.737881 37.299084 6 173.28479805324 0.016229249536991 58.898155212402 76 1 delete
09:52:56 55.737907 37.299118 6 173.30520155238 0.029908334836364 58.898155212402 76 1 delete
09:52:44 55.737893 37.299100 4 173.26606570125 0.080017201602459 58.898155212402 76 1 delete
09:52:29 55.737917 37.299119 6 173.27553182439 0.032373171299696 58.898155212402 76 1 delete
09:52:17 55.737914 37.299117 6 173.28377727045 0.052132163196802 58.898155212402 76 1 delete
09:52:05 55.737918 37.299124 6 173.28678693226 0.0082629472017288 58.898155212402 76 1 delete